Time;durP1;ratioP1;P1;durP2;ratioP2;P2;SDS_P1;SDS_P2;PMS_P1;PMS_P2;Temp;Humidity;BMP_temperature;BMP_pressure;BME280_temperature;BME280_humidity;BME280_pressure;Samples;Min_cycle;Max_cycle;Signal;HPM_P1;HPM_P2
2022/03/23 00:02:03;;;;;;;19.20;10.40;;;;;;;1.56;63.90;102407.64;105151;1274;74996;-71
2022/03/23 00:05:21;;;;;;;;;;;;;;;;;;;;;
2022/03/23 00:08:22;;;;;;;17.20;10.20;;;;;;;1.47;64.48;102408.61;105035;1273;74060;-72
2022/03/23 00:11:07;;;;;;;13.40;7.40;;;;;;;1.43;64.89;102408.27;105182;1274;61256;-72
2022/03/23 00:14:24;;;;;;;20.40;10.90;;;;;;;1.43;65.38;102409.85;105494;1274;61270;-70
2022/03/23 00:17:21;;;;;;;15.20;8.20;;;;;;;1.39;65.25;102404.63;105131;1274;76473;-72
2022/03/23 00:19:47;;;;;;;15.70;8.90;;;;;;;1.36;65.70;102406.17;105137;1276;72241;-71
2022/03/23 00:22:14;;;;;;;15.90;8.00;;;;;;;1.34;65.92;102407.15;105175;1274;74083;-71
2022/03/23 00:25:08;;;;;;;15.90;8.40;;;;;;;1.32;66.06;102404.27;105167;1274;61371;-73
2022/03/23 00:27:59;;;;;;;15.50;8.10;;;;;;;1.31;66.02;102402.25;105197;1274;61180;-72
2022/03/23 00:30:25;;;;;;;17.00;9.20;;;;;;;1.28;65.69;102398.19;105121;1275;77328;-72
2022/03/23 00:33:20;;;;;;;17.30;10.20;;;;;;;1.25;65.87;102399.92;105172;1273;72188;-72
2022/03/23 00:35:50;;;;;;;;;;;;;;;1.20;65.69;102400.81;105228;1273;74995;-72
2022/03/23 00:38:17;;;;;;;14.70;8.20;;;;;;;1.16;65.95;102399.63;105231;1274;62146;-72
2022/03/23 00:40:47;;;;;;;17.20;9.60;;;;;;;1.12;66.06;102397.20;105233;1273;61651;-72
2022/03/23 00:43:14;;;;;;;21.20;9.80;;;;;;;1.08;66.21;102394.44;105020;1275;74954;-71
2022/03/23 00:45:44;;;;;;;15.40;8.40;;;;;;;1.04;66.46;102395.84;105244;1274;71404;-70
2022/03/23 00:48:10;;;;;;;16.80;9.80;;;;;;;1.01;66.62;102393.17;105133;1274;74316;-71
2022/03/23 00:50:45;;;;;;;14.50;9.20;;;;;;;0.98;66.68;102389.30;105291;1274;61273;-71
2022/03/23 00:53:39;;;;;;;17.10;10.30;;;;;;;0.93;67.02;102388.84;105313;1273;61947;-71
2022/03/23 00:56:32;;;;;;;15.30;9.20;;;;;;;0.88;67.34;102386.64;105263;1274;76121;-71
2022/03/23 00:59:16;;;;;;;12.30;8.50;;;;;;;0.83;67.43;102385.46;105150;1274;72583;-71
2022/03/23 01:01:45;;;;;;;17.60;8.70;;;;;;;0.78;67.64;102383.43;105304;1273;74006;-72
2022/03/23 01:04:15;;;;;;;12.50;8.10;;;;;;;0.74;68.05;102385.34;105213;1275;61212;-70
2022/03/23 01:06:46;;;;;;;16.60;9.30;;;;;;;0.72;68.20;102385.80;105049;1274;61613;-71
2022/03/23 01:09:16;;;;;;;17.20;10.10;;;;;;;0.69;68.29;102387.34;105386;1274;78731;-72
2022/03/23 01:11:44;;;;;;;10.90;6.00;;;;;;;0.67;69.17;102387.77;105290;1273;71347;-71
2022/03/23 01:14:11;;;;;;;16.00;8.00;;;;;;;0.69;69.98;102390.79;105138;1276;73070;-70
2022/03/23 01:16:38;;;;;;;17.10;8.70;;;;;;;0.70;69.65;102393.02;105062;1276;61264;-71
2022/03/23 01:19:33;;;;;;;;;;;;;;;;;;;;;
2022/03/23 01:22:17;;;;;;;;;;;;;;;;;;;;;
2022/03/23 01:25:24;;;;;;;14.70;6.70;;;;;;;0.68;69.36;102390.84;105114;1276;71444;-71
2022/03/23 01:27:58;;;;;;;16.30;9.50;;;;;;;0.65;69.22;102388.56;105039;1276;72985;-72
2022/03/23 01:30:43;;;;;;;16.10;8.50;;;;;;;0.60;68.96;102390.48;105273;1274;61169;-71
2022/03/23 01:33:35;;;;;;;;;;;;;;;;;;;;;
2022/03/23 01:36:11;;;;;;;18.00;9.60;;;;;;;0.55;68.71;102391.80;105229;1273;75073;-71
2022/03/23 01:38:38;;;;;;;14.30;8.20;;;;;;;0.51;68.52;102389.16;105434;1273;71403;-71
2022/03/23 01:41:05;;;;;;;13.20;7.80;;;;;;;0.49;68.53;102385.77;105405;1274;74152;-70
2022/03/23 01:43:52;;;;;;;11.50;7.30;;;;;;;0.47;68.86;102383.79;105223;1274;60977;-71
2022/03/23 01:46:50;;;;;;;22.80;10.50;;;;;;;0.45;69.00;102386.98;105218;1274;61253;-71
2022/03/23 01:49:28;;;;;;;15.70;9.30;;;;;;;0.42;69.04;102387.14;105032;1276;75231;-72
2022/03/23 01:51:54;;;;;;;19.00;8.50;;;;;;;0.39;69.43;102384.95;105254;1274;72547;-72
2022/03/23 01:54:25;;;;;;;15.30;9.20;;;;;;;0.38;69.40;102386.77;105182;1274;73149;-72
2022/03/23 01:56:58;;;;;;;16.20;8.10;;;;;;;0.36;69.19;102380.40;105146;1276;62638;-70
2022/03/23 01:59:29;;;;;;;11.10;6.80;;;;;;;0.35;69.37;102382.02;105481;1273;61635;-71
2022/03/23 02:01:55;;;;;;;13.30;8.70;;;;;;;0.34;69.56;102380.69;105258;1274;75412;-70
2022/03/23 02:04:40;;;;;;;18.50;10.40;;;;;;;0.33;69.23;102374.98;105220;1274;71103;-70
2022/03/23 02:07:08;;;;;;;15.50;7.80;;;;;;;0.32;69.28;102377.46;105261;1274;72981;-72
2022/03/23 02:09:48;;;;;;;;;;;;;;;;;;;;;
2022/03/23 02:12:22;;;;;;;14.50;8.50;;;;;;;0.30;69.20;102373.03;105163;1274;61390;-70
2022/03/23 02:14:48;;;;;;;24.90;12.70;;;;;;;0.27;69.02;102370.71;105183;1274;75917;-71
2022/03/23 02:17:27;;;;;;;13.00;8.40;;;;;;;0.26;69.25;102372.32;105262;1274;72653;-70
2022/03/23 02:19:54;;;;;;;14.10;8.80;;;;;;;0.25;69.30;102369.95;105302;1273;73195;-72
2022/03/23 02:22:21;;;;;;;21.80;10.20;;;;;;;0.23;69.08;102370.88;105168;1274;61171;-72
2022/03/23 02:24:48;;;;;;;14.00;7.80;;;;;;;0.20;69.41;102368.40;105238;1273;61659;-73
2022/03/23 02:27:36;;;;;;;17.40;10.80;;;;;;;0.17;69.39;102369.92;105230;1274;76412;-72
2022/03/23 02:30:23;;;;;;;27.00;11.00;;;;;;;0.13;69.47;102368.91;105262;1274;71563;-73
2022/03/23 02:32:51;;;;;;;21.60;10.90;;;;;;;0.07;69.60;102373.67;105259;1274;74111;-72
2022/03/23 02:35:27;;;;;;;16.10;10.40;;;;;;;0.00;69.66;102367.88;105291;1275;61298;-72
2022/03/23 02:37:53;;;;;;;25.00;12.10;;;;;;;-0.04;69.95;102367.71;105166;1276;61256;-72
2022/03/23 02:40:36;;;;;;;18.00;9.80;;;;;;;-0.10;70.19;102370.57;105220;1274;76139;-72
2022/03/23 02:43:03;;;;;;;18.00;10.10;;;;;;;-0.17;70.50;102364.62;105315;1274;71432;-76
2022/03/23 02:45:30;;;;;;;19.00;10.70;;;;;;;-0.24;70.81;102364.73;105213;1274;72732;-75
2022/03/23 02:47:56;;;;;;;23.20;10.80;;;;;;;-0.30;71.05;102367.39;105111;1276;61384;-72
2022/03/23 02:50:24;;;;;;;18.20;8.80;;;;;;;-0.36;72.11;102368.67;105275;1274;59150;-72
2022/03/23 03:01:52;;;;;;;16.00;8.40;;;;;;;-0.53;72.40;102366.92;105152;1275;61381;-70
2022/03/23 03:04:32;;;;;;;12.10;7.60;;;;;;;-0.56;72.72;102364.80;105200;1274;61847;-71
2022/03/23 03:07:01;;;;;;;17.00;10.40;;;;;;;-0.58;72.88;102360.52;105035;1276;74987;-71
2022/03/23 03:09:27;;;;;;;24.80;12.90;;;;;;;-0.61;72.82;102365.15;105106;1276;71356;-72
2022/03/23 03:12:04;;;;;;;20.60;12.10;;;;;;;-0.63;73.14;102369.92;105252;1273;73944;-72
2022/03/23 03:14:51;;;;;;;17.50;10.00;;;;;;;-0.66;73.09;102365.54;105243;1275;61270;-72
2022/03/23 03:17:17;;;;;;;16.70;9.80;;;;;;;-0.69;73.01;102370.70;105180;1274;61279;-71
2022/03/23 03:19:54;;;;;;;21.30;10.30;;;;;;;-0.72;73.43;102370.63;105334;1276;74892;-70
2022/03/23 03:22:25;;;;;;;20.80;10.70;;;;;;;-0.75;73.66;102369.89;105067;1276;71387;-71
2022/03/23 03:24:54;;;;;;;24.40;12.10;;;;;;;-0.77;74.17;102368.77;105138;1276;74125;-71
2022/03/23 03:27:21;;;;;;;17.00;10.30;;;;;;;-0.77;74.27;102368.42;105179;1274;61699;-71
2022/03/23 03:29:47;;;;;;;21.50;11.10;;;;;;;-0.78;74.04;102371.23;105269;1274;61125;-71
2022/03/23 03:32:22;;;;;;;23.30;12.20;;;;;;;-0.81;73.82;102370.66;105259;1274;76190;-70
2022/03/23 03:34:49;;;;;;;22.20;12.20;;;;;;;-0.87;73.75;102362.70;105265;1274;70683;-70
2022/03/23 03:37:15;;;;;;;22.80;11.60;;;;;;;-0.88;74.11;102369.52;105149;1274;71871;-71
2022/03/23 03:39:53;;;;;;;24.70;11.60;;;;;;;-0.90;74.29;102369.09;105325;1274;61376;-71
2022/03/23 03:42:20;;;;;;;24.10;12.10;;;;;;;-0.93;74.31;102370.58;105253;1275;61486;-71
2022/03/23 03:44:50;;;;;;;23.40;11.20;;;;;;;-0.94;74.39;102365.59;105220;1274;75425;-71
2022/03/23 03:47:23;;;;;;;23.90;13.40;;;;;;;-0.96;74.71;102369.13;105229;1275;71801;-72
2022/03/23 03:49:51;;;;;;;23.40;12.70;;;;;;;-0.97;74.58;102365.70;105134;1276;73110;-72
2022/03/23 03:52:18;;;;;;;23.90;12.00;;;;;;;-0.99;74.83;102368.55;105169;1274;61497;-71
2022/03/23 03:54:47;;;;;;;21.90;10.70;;;;;;;-1.00;75.06;102369.33;105166;1275;61278;-71
2022/03/23 03:57:14;;;;;;;22.20;11.20;;;;;;;-1.02;75.20;102370.60;105240;1274;75070;-71
2022/03/23 04:00:05;;;;;;;26.80;13.10;;;;;;;-1.05;75.26;102373.82;105199;1274;71504;-71
2022/03/23 04:02:40;;;;;;;26.40;12.60;;;;;;;-1.07;75.50;102377.56;105244;1274;73017;-70
2022/03/23 04:05:11;;;;;;;23.70;11.90;;;;;;;-1.09;75.47;102375.89;105223;1274;61382;-71
2022/03/23 04:07:40;;;;;;;22.80;12.40;;;;;;;-1.12;75.43;102378.95;105125;1274;61982;-71
2022/03/23 04:10:07;;;;;;;27.50;13.60;;;;;;;-1.15;75.33;102378.52;105185;1275;76132;-70
2022/03/23 04:12:37;;;;;;;22.70;12.20;;;;;;;-1.18;75.44;102376.59;105259;1274;71930;-72
2022/03/23 04:15:09;;;;;;;26.10;11.80;;;;;;;-1.21;75.37;102379.81;105180;1274;73930;-71
2022/03/23 04:17:36;;;;;;;27.90;12.80;;;;;;;-1.24;75.40;102381.15;105145;1274;61887;-72
2022/03/23 04:20:04;;;;;;;23.90;11.60;;;;;;;-1.29;75.42;102379.04;105260;1274;61388;-72
2022/03/23 04:22:38;;;;;;;22.90;11.50;;;;;;;-1.32;75.59;102380.89;105313;1274;74896;-71
2022/03/23 04:25:07;;;;;;;26.50;13.30;;;;;;;-1.35;75.72;102383.80;105300;1274;71515;-71
2022/03/23 04:28:16;;;;;;;29.60;13.40;;;;;;;-1.38;75.81;102381.83;105419;1274;73011;-71
2022/03/23 04:30:41;;;;;;;19.50;10.90;;;;;;;-1.41;75.92;102386.12;105260;1275;61428;-72
2022/03/23 04:33:17;;;;;;;22.50;12.80;;;;;;;-1.43;76.06;102388.44;105373;1274;62465;-71
2022/03/23 04:35:44;;;;;;;22.60;12.20;;;;;;;-1.46;76.57;102385.73;105771;1274;74899;-71
2022/03/23 04:38:11;;;;;;;23.60;11.50;;;;;;;-1.47;76.57;102387.71;105308;1274;71190;-70
2022/03/23 04:40:40;;;;;;;26.00;12.70;;;;;;;-1.49;76.79;102388.47;105413;1274;73992;-70
2022/03/23 04:43:10;;;;;;;27.20;12.60;;;;;;;-1.51;76.76;102389.78;105278;1276;61463;-70
2022/03/23 04:46:07;;;;;;;27.20;12.00;;;;;;;-1.54;76.71;102394.22;105350;1274;61787;-71
2022/03/23 04:48:33;;;;;;;27.90;12.20;;;;;;;-1.57;76.63;102398.98;105223;1274;74649;-72
2022/03/23 04:51:00;;;;;;;25.70;12.10;;;;;;;-1.60;76.73;102399.63;105187;1274;71530;-71
2022/03/23 04:53:29;;;;;;;24.90;12.40;;;;;;;-1.62;76.91;102401.26;105396;1273;73066;-72
2022/03/23 04:55:56;;;;;;;21.30;12.40;;;;;;;-1.66;76.97;102397.74;105292;1274;61167;-72
2022/03/23 04:58:34;;;;;;;24.50;11.70;;;;;;;-1.69;77.02;102400.09;105334;1274;61459;-71
2022/03/23 05:01:10;;;;;;;22.30;11.50;;;;;;;-1.75;77.32;102391.48;105363;1274;76690;-69
2022/03/23 05:03:37;;;;;;;31.70;13.40;;;;;;;-1.73;77.39;102410.11;105345;1274;71479;-71
2022/03/23 05:06:29;;;;;;;23.80;12.70;;;;;;;-1.75;77.49;102408.82;105318;1275;74007;-71
2022/03/23 05:08:56;;;;;;;25.70;12.40;;;;;;;-1.76;77.78;102408.33;104966;1277;62361;-71
2022/03/23 05:11:26;;;;;;;26.70;12.50;;;;;;;-1.77;77.76;102408.89;105253;1274;61208;-72
2022/03/23 05:14:01;;;;;;;24.80;11.80;;;;;;;-1.79;77.88;102410.17;105187;1274;75435;-71
2022/03/23 05:16:37;;;;;;;25.50;12.90;;;;;;;-1.81;77.92;102413.70;105141;1274;71529;-68
2022/03/23 05:19:04;;;;;;;26.30;12.90;;;;;;;-1.82;78.16;102413.23;105243;1274;73996;-71
2022/03/23 05:21:31;;;;;;;25.00;12.80;;;;;;;-1.84;78.18;102415.38;105214;1274;62733;-70
2022/03/23 05:23:58;;;;;;;24.10;13.10;;;;;;;-1.84;78.29;102414.16;105294;1274;61278;-72
2022/03/23 05:26:34;;;;;;;23.00;12.10;;;;;;;-1.85;78.28;102416.62;105274;1274;75022;-72
2022/03/23 05:29:29;;;;;;;21.00;11.60;;;;;;;-1.85;78.43;102418.86;105132;1274;71391;-73
2022/03/23 05:31:55;;;;;;;26.40;12.80;;;;;;;-1.84;78.63;102419.36;105086;1275;73196;-73
2022/03/23 05:34:22;;;;;;;28.80;11.80;;;;;;;-1.83;78.56;102419.67;105307;1274;62993;-72
2022/03/23 05:36:51;;;;;;;26.80;12.50;;;;;;;-1.81;78.67;102419.27;105421;1274;61887;-72
2022/03/23 05:39:18;;;;;;;24.40;12.40;;;;;;;-1.75;79.01;102415.92;105280;1274;76122;-72
2022/03/23 05:41:47;;;;;;;29.10;12.90;;;;;;;-1.68;78.98;102416.70;105318;1275;71623;-72
2022/03/23 05:44:14;;;;;;;25.20;13.30;;;;;;;-1.59;78.79;102417.46;105197;1274;73076;-71
2022/03/23 05:46:44;;;;;;;26.80;13.10;;;;;;;-1.53;78.82;102418.29;105260;1274;62568;-71
2022/03/23 05:49:10;;;;;;;32.00;13.90;;;;;;;-1.46;78.79;102416.48;105520;1274;62187;-71
2022/03/23 05:51:37;;;;;;;23.50;12.60;;;;;;;-1.39;78.62;102413.63;105227;1275;73781;-71
2022/03/23 05:54:14;;;;;;;23.80;13.20;;;;;;;-1.32;78.35;102411.80;105304;1274;61834;-71
2022/03/23 05:56:40;;;;;;;32.00;13.60;;;;;;;-1.26;78.20;102413.14;105215;1275;72918;-71
2022/03/23 05:59:07;;;;;;;26.20;13.10;;;;;;;-1.19;78.11;102412.39;105201;1276;61282;-72
2022/03/23 06:01:42;;;;;;;26.70;14.20;;;;;;;-1.12;78.04;102420.27;105261;1274;61356;-71
2022/03/23 06:04:12;;;;;;;28.80;14.30;;;;;;;-1.04;78.14;102414.23;105044;1278;74978;-72
2022/03/23 06:06:39;;;;;;;25.00;14.20;;;;;;;-0.94;78.19;102418.56;105280;1275;72586;-70
2022/03/23 06:09:17;;;;;;;31.80;13.70;;;;;;;-0.85;78.11;102421.35;104988;1278;73038;-72
2022/03/23 06:11:43;;;;;;;24.40;13.70;;;;;;;-0.75;77.85;102420.81;105325;1274;62247;-71
2022/03/23 06:14:13;;;;;;;24.50;14.50;;;;;;;-0.65;77.71;102418.68;105167;1274;61253;-72
2022/03/23 06:16:42;;;;;;;24.40;13.00;;;;;;;-0.55;77.59;102422.29;105243;1275;76638;-72
2022/03/23 06:19:10;;;;;;;29.70;14.40;;;;;;;-0.45;77.51;102425.17;105185;1274;72560;-73
2022/03/23 06:21:39;;;;;;;32.00;14.50;;;;;;;-0.33;77.35;102426.63;105174;1274;72011;-72
2022/03/23 06:24:17;;;;;;;25.90;14.20;;;;;;;-0.24;76.95;102426.23;105252;1274;62629;-71
2022/03/23 06:26:47;;;;;;;30.30;14.90;;;;;;;-0.12;76.84;102427.54;105338;1274;59936;-72
2022/03/23 06:29:17;;;;;;;29.90;13.70;;;;;;;-0.01;76.63;102429.13;105216;1274;74169;-72
2022/03/23 06:31:49;;;;;;;31.00;14.10;;;;;;;0.11;76.43;102429.69;106251;1274;73184;-71
2022/03/23 06:34:19;;;;;;;23.40;13.20;;;;;;;0.25;76.48;102428.77;105626;1274;73039;-72
2022/03/23 06:36:45;;;;;;;30.00;14.50;;;;;;;0.40;76.39;102427.60;105291;1274;64136;-73
2022/03/23 06:39:12;;;;;;;27.20;13.80;;;;;;;0.55;76.13;102429.72;105133;1274;61411;-75
2022/03/23 06:41:59;;;;;;;22.60;13.10;;;;;;;0.71;75.89;102431.27;105342;1276;75167;-74
2022/03/23 06:44:29;;;;;;;23.70;13.90;;;;;;;0.90;75.43;102428.00;105148;1275;71534;-75
2022/03/23 06:47:00;;;;;;;27.40;14.00;;;;;;;1.07;75.05;102429.70;105229;1274;74173;-76
2022/03/23 06:49:27;;;;;;;26.10;12.60;;;;;;;1.24;74.93;102434.30;105643;1274;61374;-75
2022/03/23 06:52:03;;;;;;;23.40;12.90;;;;;;;1.41;74.54;102435.06;105785;1274;61140;-76
2022/03/23 06:54:30;;;;;;;22.20;13.70;;;;;;;1.59;74.15;102434.90;105829;1274;75996;-75
2022/03/23 06:56:57;;;;;;;25.20;13.40;;;;;;;1.77;73.80;102438.55;105449;1274;71322;-73
2022/03/23 06:59:26;;;;;;;28.40;13.90;;;;;;;1.95;73.40;102438.39;105220;1274;72907;-71
2022/03/23 07:01:53;;;;;;;30.40;13.70;;;;;;;2.14;72.94;102437.95;105152;1275;61329;-73
2022/03/23 07:04:24;;;;;;;23.20;14.20;;;;;;;2.32;72.37;102436.16;105043;1274;61442;-70
2022/03/23 07:06:52;;;;;;;20.80;11.90;;;;;;;2.50;71.94;102438.05;105154;1274;75930;-69
2022/03/23 07:09:31;;;;;;;16.70;10.30;;;;;;;2.67;72.00;102440.13;105029;1274;72669;-69
2022/03/23 07:12:28;;;;;;;;;;;;;;;;;;;;;
2022/03/23 07:14:55;;;;;;;26.70;15.10;;;;;;;3.06;71.18;102439.96;104977;1274;61493;-68
2022/03/23 07:17:24;;;;;;;27.70;13.90;;;;;;;3.24;70.69;102438.80;105076;1274;61316;-69
2022/03/23 07:19:53;;;;;;;27.80;15.30;;;;;;;3.43;69.89;102441.60;105006;1274;76016;-68
2022/03/23 07:22:22;;;;;;;20.20;12.70;;;;;;;3.61;69.15;102439.00;104954;1274;73068;-68
2022/03/23 07:24:50;;;;;;;29.10;13.50;;;;;;;3.79;68.64;102439.60;104963;1274;71947;-69
2022/03/23 07:27:23;;;;;;;22.30;12.90;;;;;;;3.98;68.54;102443.38;105032;1274;61269;-69
2022/03/23 07:29:53;;;;;;;23.80;13.50;;;;;;;4.19;67.53;102445.73;105120;1274;61270;-71
2022/03/23 07:32:19;;;;;;;22.40;12.50;;;;;;;4.38;66.76;102439.31;105100;1274;74894;-71
2022/03/23 07:34:49;;;;;;;23.00;12.10;;;;;;;4.58;66.10;102437.23;104995;1274;71593;-70
2022/03/23 07:37:18;;;;;;;18.60;10.50;;;;;;;4.77;65.22;102437.66;104976;1274;73109;-68
2022/03/23 07:39:50;;;;;;;19.40;11.60;;;;;;;4.96;64.78;102435.47;104850;1277;61308;-70
2022/03/23 07:42:25;;;;;;;19.20;12.80;;;;;;;5.14;64.17;102438.02;104952;1274;61304;-70
2022/03/23 07:44:52;;;;;;;25.50;13.40;;;;;;;5.32;63.97;102443.69;104904;1274;74951;-70
2022/03/23 07:47:24;;;;;;;26.80;13.70;;;;;;;5.48;63.04;102445.10;105057;1274;71340;-70
2022/03/23 07:49:57;;;;;;;20.10;11.40;;;;;;;5.65;62.63;102441.39;104999;1274;72970;-71
2022/03/23 07:52:27;;;;;;;22.00;12.10;;;;;;;5.84;61.86;102446.66;104963;1274;61253;-71
2022/03/23 07:54:54;;;;;;;19.50;12.70;;;;;;;6.03;61.10;102447.00;104943;1274;61268;-70
2022/03/23 07:57:21;;;;;;;20.40;12.30;;;;;;;6.23;60.51;102454.30;104919;1274;76014;-71
2022/03/23 07:59:50;;;;;;;19.50;12.60;;;;;;;6.42;59.39;102451.92;105011;1274;71641;-71
2022/03/23 08:02:31;;;;;;;23.70;12.50;;;;;;;6.63;58.58;102453.51;104924;1274;72881;-71
2022/03/23 08:04:59;;;;;;;17.70;11.00;;;;;;;6.83;57.92;102449.34;105037;1273;62404;-70
2022/03/23 08:07:46;;;;;;;19.60;11.70;;;;;;;7.01;57.37;102448.58;105145;1274;61180;-69
2022/03/23 08:10:13;;;;;;;16.70;11.20;;;;;;;7.21;56.61;102453.48;102756;1274;2939785;-71
2022/03/23 08:12:41;;;;;;;20.60;13.90;;;;;;;7.40;56.28;102455.84;104998;1274;71416;-71
2022/03/23 08:15:09;;;;;;;22.40;13.10;;;;;;;7.58;55.75;102451.69;104950;1274;71815;-70
2022/03/23 08:17:38;;;;;;;21.70;12.80;;;;;;;7.76;55.58;102452.13;104949;1274;62452;-71
2022/03/23 08:22:57;;;;;;;17.90;12.20;;;;;;;8.11;55.84;102452.38;105043;1274;76305;-70
2022/03/23 08:25:26;;;;;;;23.00;12.10;;;;;;;8.29;54.79;102453.65;104878;1277;71333;-70
2022/03/23 08:27:57;;;;;;;18.30;12.20;;;;;;;8.45;53.71;102455.11;104961;1274;74038;-68
2022/03/23 08:30:25;;;;;;;21.40;12.10;;;;;;;8.64;52.93;102454.75;104980;1274;61403;-70
2022/03/23 08:32:52;;;;;;;19.60;11.10;;;;;;;8.83;50.91;102458.55;105007;1275;61255;-69
2022/03/23 08:35:20;;;;;;;19.60;10.90;;;;;;;8.99;50.16;102451.80;104876;1274;73771;-69
2022/03/23 08:37:51;;;;;;;15.40;10.60;;;;;;;9.18;49.67;102457.04;104835;1274;72859;-70
2022/03/23 08:40:23;;;;;;;17.70;10.70;;;;;;;9.33;49.09;102452.14;104945;1274;74290;-70
2022/03/23 08:42:52;;;;;;;19.20;11.50;;;;;;;9.47;49.12;102456.46;105136;1274;61296;-67
2022/03/23 08:45:19;;;;;;;16.00;9.90;;;;;;;9.64;49.09;102456.16;105023;1274;61683;-69
2022/03/23 08:47:48;;;;;;;15.70;10.30;;;;;;;9.77;47.82;102452.00;104951;1274;75102;-69
2022/03/23 08:50:18;;;;;;;20.00;11.50;;;;;;;9.90;46.65;102452.25;104960;1274;71675;-70
2022/03/23 08:52:46;;;;;;;25.30;13.90;;;;;;;9.97;45.69;102452.87;105034;1274;74043;-71
2022/03/23 08:55:19;;;;;;;21.20;12.00;;;;;;;10.10;46.36;102453.20;104915;1274;61753;-69
2022/03/23 08:57:47;;;;;;;17.30;10.10;;;;;;;10.27;45.69;102454.85;105182;1274;61610;-71
2022/03/23 09:00:17;;;;;;;18.50;11.10;;;;;;;10.41;44.77;102453.86;105029;1274;75051;-71
2022/03/23 09:02:46;;;;;;;17.80;12.50;;;;;;;10.53;44.67;102453.30;105097;1275;71555;-71
2022/03/23 09:05:18;;;;;;;15.40;10.10;;;;;;;10.68;43.10;102453.30;104966;1274;73068;-71
2022/03/23 09:07:55;;;;;;;17.60;10.70;;;;;;;10.79;41.92;102451.63;105123;1274;61278;-71
2022/03/23 09:10:24;;;;;;;19.10;11.40;;;;;;;10.89;42.48;102451.64;105136;1274;61288;-72
2022/03/23 09:12:51;;;;;;;18.10;11.40;;;;;;;11.01;42.52;102450.20;105010;1274;75022;-69
2022/03/23 09:15:18;;;;;;;18.20;10.70;;;;;;;11.17;42.03;102443.14;104923;1275;62003;-70
2022/03/23 09:17:45;;;;;;;22.50;12.40;;;;;;;11.34;41.55;102440.23;105354;1274;74012;-70
2022/03/23 09:20:23;;;;;;;20.50;11.20;;;;;;;11.52;40.39;102442.58;104966;1276;61794;-70
2022/03/23 09:22:50;;;;;;;21.50;10.30;;;;;;;11.64;39.25;102442.89;106858;1276;61207;-71
2022/03/23 09:25:18;;;;;;;19.10;10.40;;;;;;;11.78;39.83;102446.90;104983;1274;75103;-70
2022/03/23 09:27:45;;;;;;;16.30;10.90;;;;;;;11.97;39.39;102445.39;105100;1274;71075;-69
2022/03/23 09:30:13;;;;;;;14.70;8.20;;;;;;;12.14;37.87;102443.46;105013;1273;74424;-71
2022/03/23 09:32:44;;;;;;;17.50;11.60;;;;;;;12.21;36.62;102443.55;105034;1274;61537;-70
2022/03/23 09:35:11;;;;;;;15.20;9.60;;;;;;;12.26;36.25;102443.98;105007;1277;61694;-72
2022/03/23 09:37:48;;;;;;;17.90;10.30;;;;;;;12.37;36.20;102444.71;105229;1273;74701;-68
2022/03/23 09:40:18;;;;;;;14.90;9.90;;;;;;;12.53;36.40;102440.49;105346;1274;70193;-69
2022/03/23 09:42:46;;;;;;;17.50;10.00;;;;;;;12.71;35.74;102439.86;105278;1274;74363;-68
2022/03/23 09:45:21;;;;;;;13.40;9.30;;;;;;;12.86;35.31;102439.89;105355;1273;61361;-68
2022/03/23 09:47:47;;;;;;;;;;;;;;;12.99;34.78;102443.59;105151;1274;61233;-68
2022/03/23 09:50:14;;;;;;;14.10;8.90;;;;;;;13.13;34.95;102434.61;104900;1277;61371;-68
2022/03/23 09:52:40;;;;;;;14.40;9.30;;;;;;;13.29;34.34;102432.34;104953;1274;70662;-71
2022/03/23 09:55:08;;;;;;;19.10;11.00;;;;;;;13.48;34.89;102430.83;105088;1273;74062;-73
2022/03/23 09:57:35;;;;;;;14.70;9.70;;;;;;;13.70;35.23;102424.13;104953;1274;61275;-73
2022/03/23 10:00:03;;;;;;;15.00;9.10;;;;;;;13.91;34.64;102424.68;104867;1276;62609;-71
2022/03/23 10:02:57;;;;;;;16.00;10.00;;;;;;;14.10;33.76;102430.02;105026;1274;77034;-72
2022/03/23 10:05:41;;;;;;;18.60;11.90;;;;;;;14.23;33.51;102428.71;104954;1274;69942;-72
2022/03/23 10:08:24;;;;;;;15.50;9.90;;;;;;;14.36;33.01;102428.83;105142;1273;72563;-72
2022/03/23 10:11:37;;;;;;;15.40;9.60;;;;;;;14.55;32.99;102425.13;105069;1273;62433;-66
2022/03/23 10:14:51;;;;;;;15.00;10.60;;;;;;;14.75;31.23;102423.93;105018;1274;61843;-70
2022/03/23 10:17:30;;;;;;;17.70;10.90;;;;;;;15.03;31.91;102422.98;104933;1273;75999;-70
2022/03/23 10:19:57;;;;;;;15.40;9.60;;;;;;;15.21;31.29;102415.77;105005;1274;72730;-71
2022/03/23 10:22:27;;;;;;;15.00;10.80;;;;;;;15.31;29.50;102416.80;105137;1274;71998;-68
2022/03/23 10:25:10;;;;;;;17.60;10.20;;;;;;;15.37;30.21;102418.41;105169;1274;61599;-69
2022/03/23 10:27:36;;;;;;;14.70;10.40;;;;;;;15.51;29.30;102417.30;105155;1275;61869;-68
2022/03/23 10:30:04;;;;;;;16.10;10.30;;;;;;;15.57;28.95;102415.78;105297;1274;76153;-69
2022/03/23 10:32:37;;;;;;;16.60;10.40;;;;;;;15.67;29.44;102415.02;104996;1274;72407;-71
2022/03/23 10:35:13;;;;;;;19.30;10.40;;;;;;;15.89;30.01;102413.44;105789;1273;73342;-69
2022/03/23 10:37:50;;;;;;;14.70;9.50;;;;;;;16.09;29.13;102414.45;105093;1274;61752;-70
2022/03/23 10:40:18;;;;;;;15.70;10.40;;;;;;;16.23;28.58;102412.85;104991;1274;61427;-68
2022/03/23 10:45:20;;;;;;;14.60;9.90;;;;;;;16.51;28.64;102408.67;105775;1261;66393;-70
2022/03/23 10:47:49;;;;;;;16.20;10.60;;;;;;;16.61;27.62;102405.02;105447;1273;72912;-70
2022/03/23 10:50:19;;;;;;;13.70;10.30;;;;;;;16.73;27.42;102406.17;105346;1274;61301;-69
2022/03/23 10:53:06;;;;;;;15.70;9.90;;;;;;;16.86;27.36;102401.04;105298;1274;61319;-68
2022/03/23 10:55:47;;;;;;;17.10;10.50;;;;;;;16.96;26.48;102405.27;105207;1274;75394;-68
2022/03/23 10:58:24;;;;;;;15.00;10.50;;;;;;;17.08;27.00;102402.63;105207;1274;71892;-70
2022/03/23 11:01:01;;;;;;;13.50;10.10;;;;;;;17.18;25.61;102394.52;105087;1271;72917;-68
2022/03/23 11:03:53;;;;;;;14.80;10.30;;;;;;;17.27;26.43;102392.79;104992;1274;61393;-69
2022/03/23 11:06:27;;;;;;;13.50;9.40;;;;;;;17.43;26.52;102394.98;104970;1274;61356;-68
2022/03/23 11:08:54;;;;;;;13.30;8.70;;;;;;;17.58;26.13;102394.30;105143;1274;75125;-69
2022/03/23 11:16:53;;;;;;;16.00;10.10;;;;;;;17.61;24.32;102385.47;107429;1261;61167;-69
2022/03/23 11:19:31;;;;;;;15.20;9.20;;;;;;;17.68;24.93;102388.09;108490;1271;60580;-68
2022/03/23 11:21:59;;;;;;;13.20;9.40;;;;;;;17.83;24.80;102387.17;108420;1271;74949;-68
2022/03/23 11:24:36;;;;;;;15.50;10.90;;;;;;;17.95;24.44;102387.52;107490;1272;69876;-68
2022/03/23 11:27:26;;;;;;;15.90;10.20;;;;;;;18.07;24.60;102386.63;105546;1272;72627;-67
2022/03/23 11:29:56;;;;;;;14.40;9.80;;;;;;;18.19;23.81;102385.40;105556;1274;61251;-67
2022/03/23 11:32:27;;;;;;;13.30;9.00;;;;;;;18.30;24.08;102382.45;105454;1274;61626;-68
2022/03/23 11:35:02;;;;;;;12.40;9.50;;;;;;;18.44;24.46;102381.62;105449;1274;75433;-72
2022/03/23 11:37:35;;;;;;;14.40;9.80;;;;;;;18.60;24.02;102382.61;105888;1272;72408;-69
2022/03/23 11:40:11;;;;;;;14.70;9.80;;;;;;;18.76;23.85;102381.73;105187;1274;72725;-70
2022/03/23 11:42:46;;;;;;;14.70;10.20;;;;;;;18.82;23.32;102379.15;105062;1271;61996;-69
2022/03/23 11:45:14;;;;;;;14.50;10.70;;;;;;;18.91;23.63;102378.98;105051;1272;61266;-70
2022/03/23 11:48:09;;;;;;;13.70;9.60;;;;;;;18.99;23.18;102378.02;105320;1272;74937;-72
2022/03/23 11:51:05;;;;;;;12.30;9.20;;;;;;;19.11;22.52;102367.36;105663;1271;72406;-70
2022/03/23 11:54:15;;;;;;;12.90;9.00;;;;;;;19.29;22.72;102369.03;105273;1272;73964;-71
2022/03/23 11:57:03;;;;;;;19.20;11.30;;;;;;;19.56;21.47;102365.71;105174;1274;61249;-69
2022/03/23 11:59:31;;;;;;;15.00;11.00;;;;;;;19.72;21.28;102368.02;105130;1273;61228;-71
2022/03/23 12:02:01;;;;;;;12.90;9.40;;;;;;;20.05;21.12;102365.08;105251;1272;74947;-71
2022/03/23 12:04:35;;;;;;;11.20;8.90;;;;;;;20.55;20.54;102356.08;105208;1271;72546;-71